sensor_id;sensor_type;location;lat;lon;timestamp;P1;durP1;ratioP1;P2;durP2;ratioP2
40044;SDS011;25735;48.122;11.422;2022-07-22T00:00:48;12.43;;;11.32;;
40044;SDS011;25735;48.122;11.422;2022-07-22T00:03:13;15.60;;;12.43;;
40044;SDS011;25735;48.122;11.422;2022-07-22T00:05:38;12.45;;;11.35;;
40044;SDS011;25735;48.122;11.422;2022-07-22T00:08:03;13.13;;;11.82;;
40044;SDS011;25735;48.122;11.422;2022-07-22T00:10:29;12.43;;;11.23;;
40044;SDS011;25735;48.122;11.422;2022-07-22T00:12:54;12.50;;;11.15;;
40044;SDS011;25735;48.122;11.422;2022-07-22T00:15:19;12.35;;;11.25;;
40044;SDS011;25735;48.122;11.422;2022-07-22T00:17:45;12.80;;;11.60;;
40044;SDS011;25735;48.122;11.422;2022-07-22T00:20:10;13.77;;;11.40;;
40044;SDS011;25735;48.122;11.422;2022-07-22T00:22:35;12.27;;;11.10;;
40044;SDS011;25735;48.122;11.422;2022-07-22T00:25:01;12.80;;;11.57;;
40044;SDS011;25735;48.122;11.422;2022-07-22T00:27:26;13.85;;;12.35;;
40044;SDS011;25735;48.122;11.422;2022-07-22T00:29:52;13.15;;;11.85;;
40044;SDS011;25735;48.122;11.422;2022-07-22T00:32:17;14.38;;;11.93;;
40044;SDS011;25735;48.122;11.422;2022-07-22T00:34:42;12.65;;;11.55;;
40044;SDS011;25735;48.122;11.422;2022-07-22T00:37:07;13.25;;;11.63;;
40044;SDS011;25735;48.122;11.422;2022-07-22T00:39:33;13.40;;;12.00;;
40044;SDS011;25735;48.122;11.422;2022-07-22T00:41:58;13.75;;;12.35;;
40044;SDS011;25735;48.122;11.422;2022-07-22T00:44:24;13.20;;;11.82;;
40044;SDS011;25735;48.122;11.422;2022-07-22T00:46:50;12.68;;;10.98;;
40044;SDS011;25735;48.122;11.422;2022-07-22T00:49:16;13.00;;;11.65;;
40044;SDS011;25735;48.122;11.422;2022-07-22T00:51:41;14.25;;;12.85;;
40044;SDS011;25735;48.122;11.422;2022-07-22T00:54:07;12.35;;;11.18;;
40044;SDS011;25735;48.122;11.422;2022-07-22T00:56:33;13.18;;;11.88;;
40044;SDS011;25735;48.122;11.422;2022-07-22T00:58:59;12.90;;;11.60;;
40044;SDS011;25735;48.122;11.422;2022-07-22T01:01:27;13.05;;;11.85;;
40044;SDS011;25735;48.122;11.422;2022-07-22T01:03:53;13.43;;;12.05;;
40044;SDS011;25735;48.122;11.422;2022-07-22T01:06:18;12.57;;;11.27;;
40044;SDS011;25735;48.122;11.422;2022-07-22T01:08:43;13.55;;;11.98;;
40044;SDS011;25735;48.122;11.422;2022-07-22T01:11:13;12.98;;;11.73;;
40044;SDS011;25735;48.122;11.422;2022-07-22T01:13:41;12.15;;;10.93;;
40044;SDS011;25735;48.122;11.422;2022-07-22T01:16:08;12.43;;;11.27;;
40044;SDS011;25735;48.122;11.422;2022-07-22T01:18:35;13.45;;;12.13;;
40044;SDS011;25735;48.122;11.422;2022-07-22T01:21:01;12.60;;;11.40;;
40044;SDS011;25735;48.122;11.422;2022-07-22T01:23:27;13.30;;;11.48;;
40044;SDS011;25735;48.122;11.422;2022-07-22T01:25:53;13.55;;;11.95;;
40044;SDS011;25735;48.122;11.422;2022-07-22T01:28:18;14.10;;;12.38;;
40044;SDS011;25735;48.122;11.422;2022-07-22T01:30:44;11.85;;;10.75;;
40044;SDS011;25735;48.122;11.422;2022-07-22T01:33:10;13.27;;;11.90;;
40044;SDS011;25735;48.122;11.422;2022-07-22T01:35:35;13.13;;;11.82;;
40044;SDS011;25735;48.122;11.422;2022-07-22T01:38:00;12.65;;;11.35;;
40044;SDS011;25735;48.122;11.422;2022-07-22T01:40:25;12.18;;;10.98;;
40044;SDS011;25735;48.122;11.422;2022-07-22T01:42:51;12.82;;;10.82;;
40044;SDS011;25735;48.122;11.422;2022-07-22T01:45:16;12.82;;;11.02;;
40044;SDS011;25735;48.122;11.422;2022-07-22T01:47:41;12.95;;;10.98;;
40044;SDS011;25735;48.122;11.422;2022-07-22T01:50:08;11.63;;;10.45;;
40044;SDS011;25735;48.122;11.422;2022-07-22T01:52:36;12.60;;;11.40;;
40044;SDS011;25735;48.122;11.422;2022-07-22T01:55:03;11.70;;;10.50;;
40044;SDS011;25735;48.122;11.422;2022-07-22T01:57:30;14.35;;;11.27;;
40044;SDS011;25735;48.122;11.422;2022-07-22T01:59:55;14.07;;;11.60;;
40044;SDS011;25735;48.122;11.422;2022-07-22T02:02:21;15.20;;;11.40;;
40044;SDS011;25735;48.122;11.422;2022-07-22T02:04:46;12.55;;;11.30;;
40044;SDS011;25735;48.122;11.422;2022-07-22T02:07:11;17.30;;;13.43;;
40044;SDS011;25735;48.122;11.422;2022-07-22T02:09:36;12.10;;;10.90;;
40044;SDS011;25735;48.122;11.422;2022-07-22T02:12:02;13.23;;;12.00;;
40044;SDS011;25735;48.122;11.422;2022-07-22T02:14:27;13.10;;;11.80;;
40044;SDS011;25735;48.122;11.422;2022-07-22T02:16:52;13.75;;;12.32;;
40044;SDS011;25735;48.122;11.422;2022-07-22T02:19:18;12.50;;;11.05;;
40044;SDS011;25735;48.122;11.422;2022-07-22T02:21:43;12.80;;;11.65;;
40044;SDS011;25735;48.122;11.422;2022-07-22T02:24:08;12.10;;;11.00;;
40044;SDS011;25735;48.122;11.422;2022-07-22T02:26:34;13.38;;;11.98;;
40044;SDS011;25735;48.122;11.422;2022-07-22T02:28:59;13.85;;;11.93;;
40044;SDS011;25735;48.122;11.422;2022-07-22T02:31:24;14.20;;;12.63;;
40044;SDS011;25735;48.122;11.422;2022-07-22T02:33:50;13.30;;;12.00;;
40044;SDS011;25735;48.122;11.422;2022-07-22T02:36:15;13.07;;;11.23;;
40044;SDS011;25735;48.122;11.422;2022-07-22T02:38:41;12.73;;;11.52;;
40044;SDS011;25735;48.122;11.422;2022-07-22T02:41:06;13.18;;;11.90;;
40044;SDS011;25735;48.122;11.422;2022-07-22T02:43:31;13.32;;;12.02;;
40044;SDS011;25735;48.122;11.422;2022-07-22T02:45:57;13.98;;;12.57;;
40044;SDS011;25735;48.122;11.422;2022-07-22T02:48:22;14.00;;;12.65;;
40044;SDS011;25735;48.122;11.422;2022-07-22T02:50:47;14.52;;;12.98;;
40044;SDS011;25735;48.122;11.422;2022-07-22T02:53:13;13.30;;;12.10;;
40044;SDS011;25735;48.122;11.422;2022-07-22T02:55:38;13.32;;;12.18;;
40044;SDS011;25735;48.122;11.422;2022-07-22T02:58:04;13.18;;;11.55;;
40044;SDS011;25735;48.122;11.422;2022-07-22T03:00:30;13.82;;;11.80;;
40044;SDS011;25735;48.122;11.422;2022-07-22T03:02:56;13.55;;;12.15;;
40044;SDS011;25735;48.122;11.422;2022-07-22T03:05:21;12.93;;;11.73;;
40044;SDS011;25735;48.122;11.422;2022-07-22T03:07:46;14.20;;;11.98;;
40044;SDS011;25735;48.122;11.422;2022-07-22T03:10:13;12.50;;;11.27;;
40044;SDS011;25735;48.122;11.422;2022-07-22T03:12:38;13.38;;;12.05;;
40044;SDS011;25735;48.122;11.422;2022-07-22T03:15:04;13.80;;;12.50;;
40044;SDS011;25735;48.122;11.422;2022-07-22T03:17:32;13.50;;;12.15;;
40044;SDS011;25735;48.122;11.422;2022-07-22T03:20:01;13.02;;;11.73;;
40044;SDS011;25735;48.122;11.422;2022-07-22T03:22:29;13.35;;;12.05;;
40044;SDS011;25735;48.122;11.422;2022-07-22T03:24:55;12.95;;;11.65;;
40044;SDS011;25735;48.122;11.422;2022-07-22T03:27:20;12.82;;;11.63;;
40044;SDS011;25735;48.122;11.422;2022-07-22T03:29:45;13.63;;;12.35;;
40044;SDS011;25735;48.122;11.422;2022-07-22T03:32:11;14.82;;;13.35;;
40044;SDS011;25735;48.122;11.422;2022-07-22T03:34:36;13.60;;;12.27;;
40044;SDS011;25735;48.122;11.422;2022-07-22T03:37:01;13.55;;;12.25;;
40044;SDS011;25735;48.122;11.422;2022-07-22T03:39:27;13.35;;;12.05;;
40044;SDS011;25735;48.122;11.422;2022-07-22T03:41:52;13.80;;;11.48;;
40044;SDS011;25735;48.122;11.422;2022-07-22T03:44:17;13.18;;;11.88;;
40044;SDS011;25735;48.122;11.422;2022-07-22T03:46:43;14.63;;;13.10;;
40044;SDS011;25735;48.122;11.422;2022-07-22T03:49:08;13.63;;;12.23;;
40044;SDS011;25735;48.122;11.422;2022-07-22T03:51:33;15.45;;;13.82;;
40044;SDS011;25735;48.122;11.422;2022-07-22T03:53:58;12.73;;;11.52;;
40044;SDS011;25735;48.122;11.422;2022-07-22T03:56:24;13.30;;;12.00;;
40044;SDS011;25735;48.122;11.422;2022-07-22T03:58:49;12.98;;;11.80;;
40044;SDS011;25735;48.122;11.422;2022-07-22T04:01:14;13.55;;;11.25;;
40044;SDS011;25735;48.122;11.422;2022-07-22T04:03:39;14.52;;;13.10;;
40044;SDS011;25735;48.122;11.422;2022-07-22T04:06:05;13.43;;;12.10;;
40044;SDS011;25735;48.122;11.422;2022-07-22T04:08:31;14.48;;;12.23;;
40044;SDS011;25735;48.122;11.422;2022-07-22T04:10:57;13.10;;;11.80;;
40044;SDS011;25735;48.122;11.422;2022-07-22T04:13:22;14.20;;;12.80;;
40044;SDS011;25735;48.122;11.422;2022-07-22T04:15:47;13.70;;;12.40;;
40044;SDS011;25735;48.122;11.422;2022-07-22T04:18:12;16.77;;;12.52;;
40044;SDS011;25735;48.122;11.422;2022-07-22T04:20:38;13.05;;;11.82;;
40044;SDS011;25735;48.122;11.422;2022-07-22T04:23:03;11.75;;;10.65;;
40044;SDS011;25735;48.122;11.422;2022-07-22T04:25:28;12.45;;;11.15;;
40044;SDS011;25735;48.122;11.422;2022-07-22T04:27:54;13.38;;;12.07;;
40044;SDS011;25735;48.122;11.422;2022-07-22T04:30:19;13.95;;;12.23;;
40044;SDS011;25735;48.122;11.422;2022-07-22T04:32:44;13.43;;;12.23;;
40044;SDS011;25735;48.122;11.422;2022-07-22T04:35:10;14.20;;;12.73;;
40044;SDS011;25735;48.122;11.422;2022-07-22T04:37:35;15.27;;;12.88;;
40044;SDS011;25735;48.122;11.422;2022-07-22T04:40:00;14.05;;;12.55;;
40044;SDS011;25735;48.122;11.422;2022-07-22T04:42:26;14.70;;;12.93;;
40044;SDS011;25735;48.122;11.422;2022-07-22T04:44:51;13.20;;;11.88;;
40044;SDS011;25735;48.122;11.422;2022-07-22T04:47:16;15.45;;;12.57;;
40044;SDS011;25735;48.122;11.422;2022-07-22T04:49:42;13.85;;;12.38;;
40044;SDS011;25735;48.122;11.422;2022-07-22T04:52:07;11.95;;;10.85;;
40044;SDS011;25735;48.122;11.422;2022-07-22T04:54:33;12.75;;;10.70;;
40044;SDS011;25735;48.122;11.422;2022-07-22T04:56:59;12.93;;;11.70;;
40044;SDS011;25735;48.122;11.422;2022-07-22T04:59:24;13.15;;;11.95;;
40044;SDS011;25735;48.122;11.422;2022-07-22T05:01:50;13.27;;;11.98;;
40044;SDS011;25735;48.122;11.422;2022-07-22T05:04:15;13.43;;;12.20;;
40044;SDS011;25735;48.122;11.422;2022-07-22T05:06:40;15.43;;;12.18;;
40044;SDS011;25735;48.122;11.422;2022-07-22T05:09:05;16.30;;;12.77;;
40044;SDS011;25735;48.122;11.422;2022-07-22T05:11:31;12.82;;;11.63;;
40044;SDS011;25735;48.122;11.422;2022-07-22T05:13:56;13.32;;;12.10;;
40044;SDS011;25735;48.122;11.422;2022-07-22T05:16:22;13.93;;;12.52;;
40044;SDS011;25735;48.122;11.422;2022-07-22T05:18:47;13.32;;;11.98;;
40044;SDS011;25735;48.122;11.422;2022-07-22T05:21:12;12.82;;;11.52;;
40044;SDS011;25735;48.122;11.422;2022-07-22T05:23:38;13.90;;;11.50;;
40044;SDS011;25735;48.122;11.422;2022-07-22T05:26:06;12.55;;;11.35;;
40044;SDS011;25735;48.122;11.422;2022-07-22T05:28:31;14.48;;;11.70;;
40044;SDS011;25735;48.122;11.422;2022-07-22T05:30:57;13.82;;;12.13;;
40044;SDS011;25735;48.122;11.422;2022-07-22T05:33:22;13.43;;;12.02;;
40044;SDS011;25735;48.122;11.422;2022-07-22T05:35:47;15.38;;;13.10;;
40044;SDS011;25735;48.122;11.422;2022-07-22T05:38:13;15.18;;;12.98;;
40044;SDS011;25735;48.122;11.422;2022-07-22T05:40:38;13.93;;;12.48;;
40044;SDS011;25735;48.122;11.422;2022-07-22T05:43:04;13.32;;;11.88;;
40044;SDS011;25735;48.122;11.422;2022-07-22T05:45:29;13.45;;;12.07;;
40044;SDS011;25735;48.122;11.422;2022-07-22T05:47:55;12.02;;;10.80;;
40044;SDS011;25735;48.122;11.422;2022-07-22T05:50:20;11.85;;;10.65;;
40044;SDS011;25735;48.122;11.422;2022-07-22T05:52:45;12.63;;;11.32;;
40044;SDS011;25735;48.122;11.422;2022-07-22T05:55:11;12.43;;;11.13;;
40044;SDS011;25735;48.122;11.422;2022-07-22T05:57:36;13.02;;;11.23;;
40044;SDS011;25735;48.122;11.422;2022-07-22T06:00:02;11.77;;;10.60;;
40044;SDS011;25735;48.122;11.422;2022-07-22T06:02:28;13.02;;;11.73;;
40044;SDS011;25735;48.122;11.422;2022-07-22T06:04:54;11.82;;;10.63;;
40044;SDS011;25735;48.122;11.422;2022-07-22T06:07:19;11.38;;;10.32;;
40044;SDS011;25735;48.122;11.422;2022-07-22T06:09:45;11.48;;;10.25;;
40044;SDS011;25735;48.122;11.422;2022-07-22T06:12:11;12.25;;;10.98;;
40044;SDS011;25735;48.122;11.422;2022-07-22T06:14:36;12.55;;;11.35;;
40044;SDS011;25735;48.122;11.422;2022-07-22T06:17:02;12.18;;;10.98;;
40044;SDS011;25735;48.122;11.422;2022-07-22T06:19:28;12.38;;;11.15;;
40044;SDS011;25735;48.122;11.422;2022-07-22T06:21:54;12.75;;;11.30;;
40044;SDS011;25735;48.122;11.422;2022-07-22T06:24:20;11.88;;;10.68;;
40044;SDS011;25735;48.122;11.422;2022-07-22T06:26:45;12.07;;;10.88;;
40044;SDS011;25735;48.122;11.422;2022-07-22T06:29:10;11.15;;;10.00;;
40044;SDS011;25735;48.122;11.422;2022-07-22T06:31:35;12.50;;;11.20;;
40044;SDS011;25735;48.122;11.422;2022-07-22T06:34:01;11.85;;;9.95;;
40044;SDS011;25735;48.122;11.422;2022-07-22T06:36:30;15.93;;;10.20;;
40044;SDS011;25735;48.122;11.422;2022-07-22T06:38:58;12.85;;;11.32;;
40044;SDS011;25735;48.122;11.422;2022-07-22T06:41:24;11.98;;;10.68;;
40044;SDS011;25735;48.122;11.422;2022-07-22T06:43:49;14.23;;;11.60;;
40044;SDS011;25735;48.122;11.422;2022-07-22T06:46:15;12.00;;;10.82;;
40044;SDS011;25735;48.122;11.422;2022-07-22T06:48:40;10.60;;;9.63;;
40044;SDS011;25735;48.122;11.422;2022-07-22T06:51:05;11.77;;;10.57;;
40044;SDS011;25735;48.122;11.422;2022-07-22T06:53:31;11.38;;;10.15;;
40044;SDS011;25735;48.122;11.422;2022-07-22T06:55:57;11.15;;;10.05;;
40044;SDS011;25735;48.122;11.422;2022-07-22T06:58:23;11.25;;;10.15;;
40044;SDS011;25735;48.122;11.422;2022-07-22T07:00:48;11.65;;;10.35;;
40044;SDS011;25735;48.122;11.422;2022-07-22T07:03:13;12.30;;;10.23;;
40044;SDS011;25735;48.122;11.422;2022-07-22T07:05:38;10.65;;;9.65;;
40044;SDS011;25735;48.122;11.422;2022-07-22T07:08:04;11.93;;;10.32;;
40044;SDS011;25735;48.122;11.422;2022-07-22T07:10:29;12.85;;;10.13;;
40044;SDS011;25735;48.122;11.422;2022-07-22T07:12:55;11.68;;;10.48;;
40044;SDS011;25735;48.122;11.422;2022-07-22T07:15:22;11.45;;;9.98;;
40044;SDS011;25735;48.122;11.422;2022-07-22T07:17:47;10.88;;;9.77;;
40044;SDS011;25735;48.122;11.422;2022-07-22T07:20:13;10.20;;;9.20;;
40044;SDS011;25735;48.122;11.422;2022-07-22T07:22:38;10.80;;;9.75;;
40044;SDS011;25735;48.122;11.422;2022-07-22T07:25:04;11.50;;;9.90;;
40044;SDS011;25735;48.122;11.422;2022-07-22T07:27:30;12.50;;;9.27;;
40044;SDS011;25735;48.122;11.422;2022-07-22T07:29:56;10.30;;;8.60;;
40044;SDS011;25735;48.122;11.422;2022-07-22T07:32:21;11.25;;;9.65;;
40044;SDS011;25735;48.122;11.422;2022-07-22T07:34:47;10.93;;;9.82;;
40044;SDS011;25735;48.122;11.422;2022-07-22T07:37:12;10.68;;;9.77;;
40044;SDS011;25735;48.122;11.422;2022-07-22T07:39:37;10.60;;;9.57;;
40044;SDS011;25735;48.122;11.422;2022-07-22T07:42:02;10.95;;;9.80;;
40044;SDS011;25735;48.122;11.422;2022-07-22T07:44:28;10.18;;;9.23;;
40044;SDS011;25735;48.122;11.422;2022-07-22T07:46:53;13.68;;;10.88;;
40044;SDS011;25735;48.122;11.422;2022-07-22T07:49:18;10.70;;;9.63;;
40044;SDS011;25735;48.122;11.422;2022-07-22T07:51:44;10.85;;;9.20;;
40044;SDS011;25735;48.122;11.422;2022-07-22T07:54:09;10.73;;;9.73;;
40044;SDS011;25735;48.122;11.422;2022-07-22T07:56:34;10.25;;;9.05;;
40044;SDS011;25735;48.122;11.422;2022-07-22T07:58:59;10.40;;;9.13;;
40044;SDS011;25735;48.122;11.422;2022-07-22T08:01:25;9.80;;;8.88;;
40044;SDS011;25735;48.122;11.422;2022-07-22T08:03:50;10.93;;;9.73;;
40044;SDS011;25735;48.122;11.422;2022-07-22T08:06:15;11.23;;;9.25;;
40044;SDS011;25735;48.122;11.422;2022-07-22T08:08:40;11.00;;;8.98;;
40044;SDS011;25735;48.122;11.422;2022-07-22T08:11:06;10.73;;;8.57;;
40044;SDS011;25735;48.122;11.422;2022-07-22T08:13:31;9.90;;;8.68;;
40044;SDS011;25735;48.122;11.422;2022-07-22T08:15:57;8.95;;;8.07;;
40044;SDS011;25735;48.122;11.422;2022-07-22T08:18:22;9.00;;;8.07;;
40044;SDS011;25735;48.122;11.422;2022-07-22T08:20:47;8.90;;;8.00;;
40044;SDS011;25735;48.122;11.422;2022-07-22T08:23:13;10.23;;;8.43;;
40044;SDS011;25735;48.122;11.422;2022-07-22T08:25:38;9.35;;;8.40;;
40044;SDS011;25735;48.122;11.422;2022-07-22T08:28:03;8.30;;;7.50;;
40044;SDS011;25735;48.122;11.422;2022-07-22T08:30:29;8.10;;;7.30;;
40044;SDS011;25735;48.122;11.422;2022-07-22T08:32:54;8.35;;;7.57;;
40044;SDS011;25735;48.122;11.422;2022-07-22T08:35:20;9.38;;;7.82;;
40044;SDS011;25735;48.122;11.422;2022-07-22T08:37:45;8.68;;;7.88;;
40044;SDS011;25735;48.122;11.422;2022-07-22T08:40:12;9.23;;;8.00;;
40044;SDS011;25735;48.122;11.422;2022-07-22T08:42:39;7.47;;;6.78;;
40044;SDS011;25735;48.122;11.422;2022-07-22T08:45:05;8.38;;;7.55;;
40044;SDS011;25735;48.122;11.422;2022-07-22T08:47:31;9.02;;;8.23;;
40044;SDS011;25735;48.122;11.422;2022-07-22T08:49:56;8.52;;;7.18;;
40044;SDS011;25735;48.122;11.422;2022-07-22T08:52:22;8.88;;;7.97;;
40044;SDS011;25735;48.122;11.422;2022-07-22T08:54:47;8.93;;;7.95;;
40044;SDS011;25735;48.122;11.422;2022-07-22T08:57:12;7.88;;;7.13;;
40044;SDS011;25735;48.122;11.422;2022-07-22T09:02:21;7.55;;;6.85;;
40044;SDS011;25735;48.122;11.422;2022-07-22T09:07:31;6.57;;;5.97;;
40044;SDS011;25735;48.122;11.422;2022-07-22T09:09:59;7.45;;;6.72;;
40044;SDS011;25735;48.122;11.422;2022-07-22T09:12:25;7.38;;;6.65;;
40044;SDS011;25735;48.122;11.422;2022-07-22T09:14:55;9.60;;;7.25;;
40044;SDS011;25735;48.122;11.422;2022-07-22T09:17:23;8.10;;;7.40;;
40044;SDS011;25735;48.122;11.422;2022-07-22T09:19:48;7.68;;;6.90;;
40044;SDS011;25735;48.122;11.422;2022-07-22T09:22:13;9.20;;;8.40;;
40044;SDS011;25735;48.122;11.422;2022-07-22T09:24:39;8.27;;;7.30;;
40044;SDS011;25735;48.122;11.422;2022-07-22T09:27:04;8.15;;;7.35;;
40044;SDS011;25735;48.122;11.422;2022-07-22T09:29:32;8.00;;;7.18;;
40044;SDS011;25735;48.122;11.422;2022-07-22T09:31:57;8.63;;;7.60;;
40044;SDS011;25735;48.122;11.422;2022-07-22T09:34:30;9.52;;;8.38;;
40044;SDS011;25735;48.122;11.422;2022-07-22T09:36:58;9.57;;;7.60;;
40044;SDS011;25735;48.122;11.422;2022-07-22T09:39:25;8.75;;;7.82;;
40044;SDS011;25735;48.122;11.422;2022-07-22T09:41:57;7.97;;;7.05;;
40044;SDS011;25735;48.122;11.422;2022-07-22T09:44:24;7.28;;;6.68;;
40044;SDS011;25735;48.122;11.422;2022-07-22T09:46:49;9.25;;;6.72;;
40044;SDS011;25735;48.122;11.422;2022-07-22T09:49:29;10.52;;;6.45;;
40044;SDS011;25735;48.122;11.422;2022-07-22T09:51:58;7.13;;;6.32;;
40044;SDS011;25735;48.122;11.422;2022-07-22T09:54:25;7.28;;;6.68;;
40044;SDS011;25735;48.122;11.422;2022-07-22T09:56:52;7.85;;;7.05;;
40044;SDS011;25735;48.122;11.422;2022-07-22T09:59:17;7.60;;;6.90;;
40044;SDS011;25735;48.122;11.422;2022-07-22T10:01:43;7.68;;;6.70;;
40044;SDS011;25735;48.122;11.422;2022-07-22T10:04:09;8.55;;;6.47;;
40044;SDS011;25735;48.122;11.422;2022-07-22T10:06:37;9.13;;;6.57;;
40044;SDS011;25735;48.122;11.422;2022-07-22T10:09:02;7.50;;;6.80;;
40044;SDS011;25735;48.122;11.422;2022-07-22T10:11:28;8.57;;;6.47;;
40044;SDS011;25735;48.122;11.422;2022-07-22T10:13:54;8.80;;;7.45;;
40044;SDS011;25735;48.122;11.422;2022-07-22T10:16:20;7.38;;;6.70;;
40044;SDS011;25735;48.122;11.422;2022-07-22T10:18:45;9.93;;;8.32;;
40044;SDS011;25735;48.122;11.422;2022-07-22T10:21:11;7.85;;;7.07;;
40044;SDS011;25735;48.122;11.422;2022-07-22T10:29:24;7.50;;;6.80;;
40044;SDS011;25735;48.122;11.422;2022-07-22T10:32:18;7.53;;;6.93;;
40044;SDS011;25735;48.122;11.422;2022-07-22T10:40:12;8.07;;;7.00;;
40044;SDS011;25735;48.122;11.422;2022-07-22T10:45:24;7.50;;;6.78;;
40044;SDS011;25735;48.122;11.422;2022-07-22T10:47:56;6.75;;;6.15;;
40044;SDS011;25735;48.122;11.422;2022-07-22T10:55:33;9.70;;;7.18;;
40044;SDS011;25735;48.122;11.422;2022-07-22T10:57:59;7.18;;;6.50;;
40044;SDS011;25735;48.122;11.422;2022-07-22T11:00:24;7.28;;;6.57;;
40044;SDS011;25735;48.122;11.422;2022-07-22T11:02:50;7.55;;;6.85;;
40044;SDS011;25735;48.122;11.422;2022-07-22T11:05:25;7.72;;;6.88;;
40044;SDS011;25735;48.122;11.422;2022-07-22T11:07:51;7.78;;;6.97;;
40044;SDS011;25735;48.122;11.422;2022-07-22T11:10:18;7.38;;;6.68;;
40044;SDS011;25735;48.122;11.422;2022-07-22T11:12:45;7.50;;;6.50;;
40044;SDS011;25735;48.122;11.422;2022-07-22T11:15:11;7.65;;;6.88;;
40044;SDS011;25735;48.122;11.422;2022-07-22T11:17:37;7.82;;;6.72;;
40044;SDS011;25735;48.122;11.422;2022-07-22T11:20:04;7.40;;;6.75;;
40044;SDS011;25735;48.122;11.422;2022-07-22T11:22:35;8.48;;;7.60;;
40044;SDS011;25735;48.122;11.422;2022-07-22T11:25:02;7.40;;;6.70;;
40044;SDS011;25735;48.122;11.422;2022-07-22T11:27:32;8.80;;;6.60;;
40044;SDS011;25735;48.122;11.422;2022-07-22T11:29:57;7.85;;;7.07;;
40044;SDS011;25735;48.122;11.422;2022-07-22T11:32:24;6.97;;;6.38;;
40044;SDS011;25735;48.122;11.422;2022-07-22T11:34:50;7.53;;;6.70;;
40044;SDS011;25735;48.122;11.422;2022-07-22T11:37:17;7.63;;;6.93;;
40044;SDS011;25735;48.122;11.422;2022-07-22T11:39:44;7.60;;;5.65;;
40044;SDS011;25735;48.122;11.422;2022-07-22T11:42:10;7.80;;;7.05;;
40044;SDS011;25735;48.122;11.422;2022-07-22T11:44:36;7.60;;;6.35;;
40044;SDS011;25735;48.122;11.422;2022-07-22T11:47:03;12.60;;;7.88;;
40044;SDS011;25735;48.122;11.422;2022-07-22T11:49:30;7.90;;;7.03;;
40044;SDS011;25735;48.122;11.422;2022-07-22T11:52:09;7.80;;;6.95;;
40044;SDS011;25735;48.122;11.422;2022-07-22T11:54:37;7.10;;;6.35;;
40044;SDS011;25735;48.122;11.422;2022-07-22T11:57:04;7.65;;;6.88;;
40044;SDS011;25735;48.122;11.422;2022-07-22T11:59:30;8.68;;;7.05;;
40044;SDS011;25735;48.122;11.422;2022-07-22T12:01:55;6.90;;;6.40;;
40044;SDS011;25735;48.122;11.422;2022-07-22T12:04:22;8.57;;;7.43;;
40044;SDS011;25735;48.122;11.422;2022-07-22T12:06:49;8.45;;;7.65;;
40044;SDS011;25735;48.122;11.422;2022-07-22T12:09:16;7.32;;;6.63;;
40044;SDS011;25735;48.122;11.422;2022-07-22T12:11:46;7.10;;;6.50;;
40044;SDS011;25735;48.122;11.422;2022-07-22T12:14:14;8.65;;;5.97;;
40044;SDS011;25735;48.122;11.422;2022-07-22T12:16:52;7.60;;;6.85;;
40044;SDS011;25735;48.122;11.422;2022-07-22T12:19:23;7.78;;;7.07;;
40044;SDS011;25735;48.122;11.422;2022-07-22T12:21:50;7.65;;;6.60;;
40044;SDS011;25735;48.122;11.422;2022-07-22T12:24:29;6.70;;;6.13;;
40044;SDS011;25735;48.122;11.422;2022-07-22T12:27:02;8.73;;;6.68;;
40044;SDS011;25735;48.122;11.422;2022-07-22T12:29:40;6.22;;;5.50;;
40044;SDS011;25735;48.122;11.422;2022-07-22T12:32:10;8.38;;;5.57;;
40044;SDS011;25735;48.122;11.422;2022-07-22T12:37:23;7.35;;;5.43;;
40044;SDS011;25735;48.122;11.422;2022-07-22T12:40:37;7.43;;;6.65;;
40044;SDS011;25735;48.122;11.422;2022-07-22T12:42:46;5.95;;;5.45;;
40044;SDS011;25735;48.122;11.422;2022-07-22T12:45:25;5.82;;;5.32;;
40044;SDS011;25735;48.122;11.422;2022-07-22T12:47:52;5.90;;;5.22;;
40044;SDS011;25735;48.122;11.422;2022-07-22T12:50:39;5.65;;;4.93;;
40044;SDS011;25735;48.122;11.422;2022-07-22T12:53:07;5.85;;;5.30;;
40044;SDS011;25735;48.122;11.422;2022-07-22T12:55:35;5.05;;;4.53;;
40044;SDS011;25735;48.122;11.422;2022-07-22T12:58:03;5.18;;;4.78;;
40044;SDS011;25735;48.122;11.422;2022-07-22T13:00:30;5.35;;;4.95;;
40044;SDS011;25735;48.122;11.422;2022-07-22T13:03:00;5.03;;;4.57;;
40044;SDS011;25735;48.122;11.422;2022-07-22T13:05:26;5.50;;;4.78;;
40044;SDS011;25735;48.122;11.422;2022-07-22T13:07:52;5.70;;;5.15;;
40044;SDS011;25735;48.122;11.422;2022-07-22T13:10:18;4.95;;;4.55;;
40044;SDS011;25735;48.122;11.422;2022-07-22T13:12:45;7.35;;;5.18;;
40044;SDS011;25735;48.122;11.422;2022-07-22T13:15:10;5.38;;;4.95;;
40044;SDS011;25735;48.122;11.422;2022-07-22T13:17:36;5.32;;;4.93;;
40044;SDS011;25735;48.122;11.422;2022-07-22T13:20:02;6.85;;;4.47;;
40044;SDS011;25735;48.122;11.422;2022-07-22T13:22:29;6.82;;;5.22;;
40044;SDS011;25735;48.122;11.422;2022-07-22T13:24:54;5.38;;;4.78;;
40044;SDS011;25735;48.122;11.422;2022-07-22T13:27:19;8.07;;;4.78;;
40044;SDS011;25735;48.122;11.422;2022-07-22T13:29:45;5.95;;;4.55;;
40044;SDS011;25735;48.122;11.422;2022-07-22T13:32:10;5.80;;;5.10;;
40044;SDS011;25735;48.122;11.422;2022-07-22T13:34:35;4.80;;;4.30;;
40044;SDS011;25735;48.122;11.422;2022-07-22T13:37:01;5.07;;;4.65;;
40044;SDS011;25735;48.122;11.422;2022-07-22T13:39:26;6.85;;;5.13;;
40044;SDS011;25735;48.122;11.422;2022-07-22T13:41:52;6.43;;;4.85;;
40044;SDS011;25735;48.122;11.422;2022-07-22T13:44:17;5.30;;;4.80;;
40044;SDS011;25735;48.122;11.422;2022-07-22T13:46:43;5.22;;;4.82;;
40044;SDS011;25735;48.122;11.422;2022-07-22T13:49:08;5.15;;;4.65;;
40044;SDS011;25735;48.122;11.422;2022-07-22T13:51:34;7.60;;;5.10;;
40044;SDS011;25735;48.122;11.422;2022-07-22T13:53:59;5.53;;;5.03;;
40044;SDS011;25735;48.122;11.422;2022-07-22T13:56:24;5.30;;;4.80;;
40044;SDS011;25735;48.122;11.422;2022-07-22T13:58:50;5.13;;;4.72;;
40044;SDS011;25735;48.122;11.422;2022-07-22T14:01:16;5.20;;;4.70;;
40044;SDS011;25735;48.122;11.422;2022-07-22T14:03:41;6.75;;;5.35;;
40044;SDS011;25735;48.122;11.422;2022-07-22T14:06:07;7.00;;;6.03;;
40044;SDS011;25735;48.122;11.422;2022-07-22T14:08:33;6.03;;;5.53;;
40044;SDS011;25735;48.122;11.422;2022-07-22T14:10:59;5.93;;;5.40;;
40044;SDS011;25735;48.122;11.422;2022-07-22T14:13:24;8.90;;;5.35;;
40044;SDS011;25735;48.122;11.422;2022-07-22T14:15:50;6.18;;;5.68;;
40044;SDS011;25735;48.122;11.422;2022-07-22T14:18:15;6.83;;;5.97;;
40044;SDS011;25735;48.122;11.422;2022-07-22T14:20:40;7.37;;;6.67;;
40044;SDS011;25735;48.122;11.422;2022-07-22T14:23:06;6.78;;;6.10;;
40044;SDS011;25735;48.122;11.422;2022-07-22T14:25:34;7.18;;;5.82;;
40044;SDS011;25735;48.122;11.422;2022-07-22T14:28:00;6.78;;;6.05;;
40044;SDS011;25735;48.122;11.422;2022-07-22T14:30:25;7.43;;;6.70;;
40044;SDS011;25735;48.122;11.422;2022-07-22T14:32:52;6.70;;;6.20;;
40044;SDS011;25735;48.122;11.422;2022-07-22T14:35:18;7.15;;;6.55;;
40044;SDS011;25735;48.122;11.422;2022-07-22T14:37:43;7.25;;;6.35;;
40044;SDS011;25735;48.122;11.422;2022-07-22T14:40:08;7.65;;;7.00;;
40044;SDS011;25735;48.122;11.422;2022-07-22T14:42:34;7.55;;;6.85;;